Time;durP1;ratioP1;P1;durP2;ratioP2;P2;SDS_P1;SDS_P2;PMS_P1;PMS_P2;Temp;Humidity;BMP_temperature;BMP_pressure;BME280_temperature;BME280_humidity;BME280_pressure;Samples;Min_cycle;Max_cycle;Signal;HPM_P1;HPM_P2
2024/01/26 00:00:53;;;;;;;35.75;24.20;;;;;;;-145.63;100.00;61273.97;5032462;28;20029;-66
2024/01/26 00:03:19;;;;;;;40.50;24.25;;;;;;;-145.63;100.00;61273.97;5016123;28;20029;-67
2024/01/26 00:05:45;;;;;;;34.83;22.38;;;;;;;-145.63;100.00;61273.97;5032991;28;20443;-68
2024/01/26 00:08:14;;;;;;;36.75;24.25;;;;;;;-145.63;100.00;61273.97;5033493;28;20022;-68
2024/01/26 00:10:40;;;;;;;36.17;23.80;;;;;;;-145.63;100.00;61273.97;5033280;28;20041;-66
2024/01/26 00:13:05;;;;;;;37.38;24.95;;;;;;;-145.63;100.00;61273.97;5033597;28;20364;-67
2024/01/26 00:15:31;;;;;;;40.88;24.30;;;;;;;-145.63;100.00;61273.97;5034038;28;20033;-67
2024/01/26 00:17:57;;;;;;;37.75;25.17;;;;;;;-145.63;100.00;61273.97;5016157;28;20033;-66
2024/01/26 00:20:23;;;;;;;36.50;24.20;;;;;;;-145.63;100.00;61273.97;5030621;28;20025;-66
2024/01/26 00:22:49;;;;;;;37.78;25.42;;;;;;;-145.63;100.00;61273.97;5033467;28;20095;-67
2024/01/26 00:25:14;;;;;;;41.58;25.63;;;;;;;-145.63;100.00;61273.97;5033180;28;20067;-67
2024/01/26 00:27:40;;;;;;;35.42;23.95;;;;;;;-145.63;100.00;61273.97;5033656;28;20030;-65
2024/01/26 00:30:07;;;;;;;37.35;24.40;;;;;;;-145.63;100.00;61273.97;5033249;28;20034;-66
2024/01/26 00:32:32;;;;;;;40.72;25.63;;;;;;;-145.63;100.00;61273.97;5033208;28;20037;-66
2024/01/26 00:34:58;;;;;;;38.05;25.65;;;;;;;-145.63;100.00;61273.97;5019955;28;20056;-67
2024/01/26 00:37:24;;;;;;;39.50;24.30;;;;;;;-145.63;100.00;61273.97;5022275;28;20053;-66
2024/01/26 00:39:49;;;;;;;38.05;24.88;;;;;;;-145.63;100.00;61273.97;5033037;28;20045;-67
2024/01/26 00:42:15;;;;;;;39.83;25.23;;;;;;;-145.63;100.00;61273.97;5033192;28;20407;-66
2024/01/26 00:44:40;;;;;;;39.00;24.80;;;;;;;-145.63;100.00;61273.97;5032832;28;20025;-66
2024/01/26 00:47:06;;;;;;;40.13;25.50;;;;;;;-145.63;100.00;61273.97;5033004;28;20030;-66
2024/01/26 00:49:32;;;;;;;38.97;24.88;;;;;;;-145.63;100.00;61273.97;5032372;28;20045;-67
2024/01/26 00:51:57;;;;;;;33.90;22.95;;;;;;;-145.63;100.00;61273.97;5022087;28;20039;-65
2024/01/26 00:54:23;;;;;;;37.33;24.55;;;;;;;-145.63;100.00;61273.97;5033152;28;20157;-68
2024/01/26 00:56:48;;;;;;;37.05;24.30;;;;;;;-145.63;100.00;61273.97;5032950;28;20029;-67
2024/01/26 00:59:14;;;;;;;37.75;25.02;;;;;;;-145.63;100.00;61273.97;5031611;28;20099;-67
2024/01/26 01:01:40;;;;;;;40.38;25.02;;;;;;;-145.63;100.00;61273.97;5032781;28;20037;-67
2024/01/26 01:04:05;;;;;;;38.10;24.38;;;;;;;-145.63;100.00;61273.97;5032707;28;20029;-66
2024/01/26 01:06:31;;;;;;;35.50;24.50;;;;;;;-145.63;100.00;61273.97;5032922;28;20029;-66
2024/01/26 01:08:57;;;;;;;40.08;26.42;;;;;;;-145.63;100.00;61273.97;5023088;28;20702;-67
2024/01/26 01:11:22;;;;;;;41.67;26.95;;;;;;;-145.63;100.00;61273.97;5028952;28;20033;-68
2024/01/26 01:13:49;;;;;;;36.75;24.98;;;;;;;-145.63;100.00;61273.97;5032334;28;20100;-67
2024/01/26 01:16:17;;;;;;;39.78;25.58;;;;;;;-145.63;100.00;61273.97;5028615;28;20038;-66
2024/01/26 01:18:43;;;;;;;40.47;25.92;;;;;;;-145.63;100.00;61273.97;5015363;28;20030;-67
2024/01/26 01:21:09;;;;;;;41.00;25.38;;;;;;;-145.63;100.00;61273.97;5032144;28;20029;-67
2024/01/26 01:23:36;;;;;;;41.22;25.20;;;;;;;-145.63;100.00;61273.97;5032846;28;20064;-68
2024/01/26 01:26:01;;;;;;;38.70;25.50;;;;;;;-145.63;100.00;61273.97;5032385;28;20029;-68
2024/01/26 01:28:27;;;;;;;43.60;26.55;;;;;;;-145.63;100.00;61273.97;5032498;28;20075;-67
2024/01/26 01:30:53;;;;;;;42.40;26.77;;;;;;;-145.63;100.00;61273.97;5031907;28;20036;-66
2024/01/26 01:33:18;;;;;;;41.85;27.02;;;;;;;-145.63;100.00;61273.97;5032153;28;20029;-67
2024/01/26 01:35:44;;;;;;;42.72;26.27;;;;;;;-145.63;100.00;61273.97;5031745;28;20556;-67
2024/01/26 01:38:10;;;;;;;42.92;26.58;;;;;;;-145.63;100.00;61273.97;5031731;28;20065;-66
2024/01/26 01:40:36;;;;;;;44.05;27.40;;;;;;;-145.63;100.00;61273.97;5022769;28;20125;-67
2024/01/26 01:43:02;;;;;;;41.72;26.60;;;;;;;-145.63;100.00;61273.97;5015653;28;20563;-68
2024/01/26 01:45:27;;;;;;;42.85;26.38;;;;;;;-145.63;100.00;61273.97;5031750;28;20352;-67
2024/01/26 01:47:53;;;;;;;46.40;27.75;;;;;;;-145.63;100.00;61273.97;5032342;28;20072;-66
2024/01/26 01:50:19;;;;;;;36.35;24.40;;;;;;;-145.63;100.00;61273.97;5032398;28;20061;-67
2024/01/26 01:52:47;;;;;;;41.47;26.45;;;;;;;-145.63;100.00;61273.97;5032449;28;20440;-68
2024/01/26 01:55:15;;;;;;;43.13;24.90;;;;;;;-145.63;100.00;61273.97;5031915;28;20487;-66
2024/01/26 01:57:42;;;;;;;40.35;27.02;;;;;;;-145.63;100.00;61273.97;5032402;28;20083;-67
2024/01/26 02:00:15;;;;;;;43.45;28.20;;;;;;;-145.63;100.00;61273.97;5032009;28;20048;-68
2024/01/26 02:02:48;;;;;;;46.03;28.58;;;;;;;-145.63;100.00;61273.97;5034719;28;20021;-67
2024/01/26 02:05:15;;;;;;;44.80;28.58;;;;;;;-145.63;100.00;61273.97;5036379;28;20103;-66
2024/01/26 02:07:41;;;;;;;43.10;28.08;;;;;;;-145.63;100.00;61273.97;5036245;28;20470;-67
2024/01/26 02:10:09;;;;;;;44.25;28.65;;;;;;;-145.63;100.00;61273.97;5031245;28;20042;-66
2024/01/26 02:12:36;;;;;;;46.42;28.02;;;;;;;-145.63;100.00;61273.97;5016447;28;20042;-68
2024/01/26 02:15:04;;;;;;;42.67;28.27;;;;;;;-145.63;100.00;61273.97;5036334;28;20044;-68
2024/01/26 02:17:40;;;;;;;41.85;27.95;;;;;;;-145.63;100.00;61273.97;5051508;28;20068;-67
2024/01/26 02:20:07;;;;;;;46.38;29.98;;;;;;;-145.63;100.00;61273.97;5042989;28;20114;-68
2024/01/26 02:22:32;;;;;;;43.88;28.13;;;;;;;-145.63;100.00;61273.97;5036141;28;20032;-69
2024/01/26 02:24:59;;;;;;;48.17;29.70;;;;;;;-145.63;100.00;61273.97;5035494;28;20033;-67
2024/01/26 02:27:25;;;;;;;44.63;27.85;;;;;;;-145.63;100.00;61273.97;5036308;28;20521;-66
2024/01/26 02:29:50;;;;;;;45.83;28.67;;;;;;;-145.63;100.00;61273.97;5035555;28;20115;-66
2024/01/26 02:32:16;;;;;;;48.10;28.08;;;;;;;-145.63;100.00;61273.97;5035108;28;20033;-68
2024/01/26 02:34:42;;;;;;;44.88;28.10;;;;;;;-145.63;100.00;61273.97;5035617;28;20025;-67
2024/01/26 02:37:10;;;;;;;48.03;29.17;;;;;;;-145.63;100.00;61273.97;5035205;28;20045;-68
2024/01/26 02:39:36;;;;;;;44.53;29.02;;;;;;;-145.63;100.00;61273.97;5036146;28;20040;-67
2024/01/26 02:42:02;;;;;;;48.85;28.67;;;;;;;-145.63;100.00;61273.97;5035426;28;20489;-67
2024/01/26 02:44:28;;;;;;;48.97;29.63;;;;;;;-145.63;100.00;61273.97;5034238;28;20034;-67
2024/01/26 02:46:53;;;;;;;45.38;28.25;;;;;;;-145.63;100.00;61273.97;5033746;28;20044;-68
2024/01/26 02:49:19;;;;;;;47.05;28.52;;;;;;;-145.63;100.00;61273.97;5035266;28;20047;-68
2024/01/26 02:51:45;;;;;;;45.47;29.38;;;;;;;-145.63;100.00;61273.97;5033843;28;20045;-68
2024/01/26 02:54:10;;;;;;;46.38;30.23;;;;;;;-145.63;100.00;61273.97;5034808;28;20033;-67
2024/01/26 02:56:36;;;;;;;46.58;30.55;;;;;;;-145.63;100.00;61273.97;5034641;28;20051;-66
2024/01/26 02:59:02;;;;;;;51.15;30.92;;;;;;;-145.63;100.00;61273.97;5034326;28;20080;-65
2024/01/26 03:01:27;;;;;;;45.92;29.13;;;;;;;-145.63;100.00;61273.97;5034769;28;20089;-68
2024/01/26 03:03:53;;;;;;;49.78;30.00;;;;;;;-145.63;100.00;61273.97;5034461;28;20041;-67
2024/01/26 03:06:19;;;;;;;52.53;31.83;;;;;;;-145.63;100.00;61273.97;5034961;28;20057;-67
2024/01/26 03:08:44;;;;;;;52.53;30.85;;;;;;;-145.63;100.00;61273.97;5033431;28;20109;-68
2024/01/26 03:11:14;;;;;;;49.00;30.17;;;;;;;-145.63;100.00;61273.97;5021675;28;20061;-69
2024/01/26 03:13:40;;;;;;;49.65;31.50;;;;;;;-145.63;100.00;61273.97;5021181;28;20026;-67
2024/01/26 03:16:06;;;;;;;48.08;30.05;;;;;;;-145.63;100.00;61273.97;5031973;28;20352;-67
2024/01/26 03:18:31;;;;;;;50.58;31.00;;;;;;;-145.63;100.00;61273.97;5014729;28;20041;-66
2024/01/26 03:20:57;;;;;;;52.90;31.95;;;;;;;-145.63;100.00;61273.97;5014156;28;20506;-67
2024/01/26 03:23:23;;;;;;;49.08;30.25;;;;;;;-145.63;100.00;61273.97;5028042;28;20041;-67
2024/01/26 03:25:49;;;;;;;46.47;29.60;;;;;;;-145.63;100.00;61273.97;5034112;28;20067;-66
2024/01/26 03:28:14;;;;;;;48.60;30.70;;;;;;;-145.63;100.00;61273.97;5034056;28;20037;-67
2024/01/26 03:30:42;;;;;;;52.05;33.38;;;;;;;-145.63;100.00;61273.97;5034146;28;20021;-67
2024/01/26 03:33:09;;;;;;;56.58;34.67;;;;;;;-145.63;100.00;61273.97;5034081;28;20033;-66
2024/01/26 03:35:35;;;;;;;50.90;32.13;;;;;;;-145.63;100.00;61273.97;5034195;28;20025;-68
2024/01/26 03:38:01;;;;;;;51.30;32.80;;;;;;;-145.63;100.00;61273.97;5034192;28;20109;-67
2024/01/26 03:40:27;;;;;;;50.35;31.42;;;;;;;-145.63;100.00;61273.97;5034114;28;20049;-65
2024/01/26 03:42:53;;;;;;;58.20;33.33;;;;;;;-145.63;100.00;61273.97;5033496;28;20474;-67
2024/01/26 03:45:19;;;;;;;54.65;33.33;;;;;;;-145.63;100.00;61273.97;5033658;28;20030;-68
2024/01/26 03:47:45;;;;;;;53.95;34.00;;;;;;;-145.63;100.00;61273.97;5034320;28;20516;-68
2024/01/26 03:50:10;;;;;;;52.15;33.53;;;;;;;-145.63;100.00;61273.97;5033684;28;20501;-67
2024/01/26 03:52:36;;;;;;;50.90;33.10;;;;;;;-145.63;100.00;61273.97;5034193;28;20462;-66
2024/01/26 03:55:02;;;;;;;60.47;34.15;;;;;;;-145.63;100.00;61273.97;5033860;28;20463;-67
2024/01/26 03:57:30;;;;;;;59.10;34.28;;;;;;;-145.63;100.00;61273.97;5033976;28;20072;-66
2024/01/26 03:59:56;;;;;;;58.67;34.55;;;;;;;-145.63;100.00;61273.97;5033040;28;20061;-67
2024/01/26 04:02:21;;;;;;;58.42;34.60;;;;;;;-145.63;100.00;61273.97;5032003;28;20085;-65
2024/01/26 04:04:47;;;;;;;57.42;35.00;;;;;;;-145.63;100.00;61273.97;5033272;28;20060;-68
2024/01/26 04:07:13;;;;;;;63.65;37.42;;;;;;;-145.63;100.00;61273.97;5033601;28;20029;-67
2024/01/26 04:09:39;;;;;;;57.75;33.70;;;;;;;-145.63;100.00;61273.97;5033391;28;20032;-66
2024/01/26 04:12:05;;;;;;;57.67;35.63;;;;;;;-145.63;100.00;61273.97;5013487;28;20030;-68
2024/01/26 04:14:30;;;;;;;59.55;35.00;;;;;;;-145.63;100.00;61273.97;5028846;28;20026;-67
2024/01/26 04:16:56;;;;;;;58.83;35.88;;;;;;;-145.63;100.00;61273.97;5024266;28;20037;-68
2024/01/26 04:19:22;;;;;;;54.35;32.83;;;;;;;-145.63;100.00;61273.97;5019762;28;20037;-67
2024/01/26 04:21:49;;;;;;;57.78;34.58;;;;;;;-145.63;100.00;61273.97;5033223;28;20040;-67
2024/01/26 04:24:15;;;;;;;53.50;34.10;;;;;;;-145.63;100.00;61273.97;5033389;28;20041;-67
2024/01/26 04:26:41;;;;;;;54.58;33.60;;;;;;;-145.63;100.00;61273.97;5033088;28;20129;-66
2024/01/26 04:29:07;;;;;;;53.92;34.20;;;;;;;-145.63;100.00;61273.97;5032856;28;20171;-69
2024/01/26 04:31:33;;;;;;;59.95;34.50;;;;;;;-145.63;100.00;61273.97;5033165;28;20053;-68
2024/01/26 04:33:59;;;;;;;54.28;33.35;;;;;;;-145.63;100.00;61273.97;5032943;28;20413;-68
2024/01/26 04:36:25;;;;;;;52.53;32.50;;;;;;;-145.63;100.00;61273.97;5033416;28;20451;-66
2024/01/26 04:38:51;;;;;;;54.58;32.63;;;;;;;-145.63;100.00;61273.97;5033170;28;20030;-66
2024/01/26 04:41:16;;;;;;;56.10;33.60;;;;;;;-145.63;100.00;61273.97;5032773;28;20146;-65
2024/01/26 04:43:43;;;;;;;56.90;33.97;;;;;;;-145.63;100.00;61273.97;5032435;28;20030;-68
2024/01/26 04:46:08;;;;;;;55.05;33.65;;;;;;;-145.63;100.00;61273.97;5033296;28;20037;-67
2024/01/26 04:48:34;;;;;;;54.45;31.90;;;;;;;-145.63;100.00;61273.97;5032526;28;20030;-68
2024/01/26 04:51:00;;;;;;;51.28;31.42;;;;;;;-145.63;100.00;61273.97;5030650;28;20049;-68
2024/01/26 04:53:26;;;;;;;53.65;33.33;;;;;;;-145.63;100.00;61273.97;5031646;28;20033;-66
2024/01/26 04:55:53;;;;;;;56.15;33.97;;;;;;;-145.63;100.00;61273.97;5032921;28;20029;-65
2024/01/26 04:58:19;;;;;;;56.47;34.65;;;;;;;-145.63;100.00;61273.97;5032696;28;20108;-66
2024/01/26 05:00:46;;;;;;;55.53;33.97;;;;;;;-145.63;100.00;61273.97;5026308;28;20127;-67
2024/01/26 05:03:12;;;;;;;53.65;33.83;;;;;;;-145.63;100.00;61273.97;5032589;28;20504;-67
2024/01/26 05:05:38;;;;;;;54.28;33.90;;;;;;;-145.63;100.00;61273.97;5028624;28;20044;-67
2024/01/26 05:08:03;;;;;;;56.22;33.38;;;;;;;-145.63;100.00;61273.97;5023420;28;20041;-65
2024/01/26 05:10:29;;;;;;;64.40;35.50;;;;;;;-145.63;100.00;61273.97;5026983;28;20061;-67
2024/01/26 05:12:55;;;;;;;60.22;34.50;;;;;;;-145.63;100.00;61273.97;5031467;28;20035;-69
2024/01/26 05:15:21;;;;;;;61.72;36.03;;;;;;;-145.63;100.00;61273.97;5031500;28;20116;-68
2024/01/26 05:17:47;;;;;;;55.70;33.72;;;;;;;-145.63;100.00;61273.97;5045575;28;20037;-66
2024/01/26 05:20:13;;;;;;;59.28;35.35;;;;;;;-145.63;100.00;61273.97;5031837;28;20033;-72
2024/01/26 05:22:39;;;;;;;61.28;36.25;;;;;;;-145.63;100.00;61273.97;5025526;28;20421;-70
2024/01/26 05:25:05;;;;;;;59.83;35.75;;;;;;;-145.63;100.00;61273.97;5032265;28;20121;-68
2024/01/26 05:27:31;;;;;;;62.88;35.45;;;;;;;-145.63;100.00;61273.97;5031589;28;20033;-69
2024/01/26 05:29:57;;;;;;;60.00;36.50;;;;;;;-145.63;100.00;61273.97;5013775;28;20337;-68
2024/01/26 05:32:23;;;;;;;59.28;34.70;;;;;;;-145.63;100.00;61273.97;5012810;28;20136;-69
2024/01/26 05:34:49;;;;;;;56.40;34.97;;;;;;;-145.63;100.00;61273.97;5021208;28;20402;-68
2024/01/26 05:37:15;;;;;;;57.72;34.30;;;;;;;-145.63;100.00;61273.97;5022629;28;20077;-68
2024/01/26 05:39:41;;;;;;;58.70;36.35;;;;;;;-145.63;100.00;61273.97;5012143;28;20509;-70
2024/01/26 05:42:06;;;;;;;58.67;35.03;;;;;;;-145.63;100.00;61273.97;5026930;28;20108;-68
2024/01/26 05:44:32;;;;;;;59.45;33.88;;;;;;;-145.63;100.00;61273.97;5018327;28;20292;-66
2024/01/26 05:47:01;;;;;;;55.08;33.13;;;;;;;-145.63;100.00;61273.97;5013159;28;20050;-67
2024/01/26 05:49:27;;;;;;;57.42;34.03;;;;;;;-145.63;100.00;61273.97;5013969;28;20390;-68
2024/01/26 05:51:52;;;;;;;60.17;34.90;;;;;;;-145.63;100.00;61273.97;5014028;28;20117;-68
2024/01/26 05:54:21;;;;;;;56.35;34.72;;;;;;;-145.63;100.00;61273.97;5032293;28;20033;-67
2024/01/26 05:56:47;;;;;;;59.42;35.50;;;;;;;-145.63;100.00;61273.97;5028232;28;20026;-67
2024/01/26 05:59:13;;;;;;;55.45;34.25;;;;;;;-145.63;100.00;61273.97;5023362;28;20028;-68
2024/01/26 06:01:38;;;;;;;55.45;33.53;;;;;;;-145.63;100.00;61273.97;5026186;28;20060;-69
2024/01/26 06:04:05;;;;;;;61.55;34.58;;;;;;;-145.63;100.00;61273.97;5029168;28;20032;-68
2024/01/26 06:06:31;;;;;;;56.22;32.78;;;;;;;-145.63;100.00;61273.97;5012734;28;20048;-67
2024/01/26 06:08:56;;;;;;;55.53;34.13;;;;;;;-145.63;100.00;61273.97;5022828;28;20104;-66
2024/01/26 06:11:23;;;;;;;57.38;34.25;;;;;;;-145.63;100.00;61273.97;5018513;28;20156;-68
2024/01/26 06:13:49;;;;;;;62.42;35.40;;;;;;;-145.63;100.00;61273.97;5019597;28;20065;-66
2024/01/26 06:16:15;;;;;;;56.63;34.40;;;;;;;-145.63;100.00;61273.97;5021970;28;20389;-68
2024/01/26 06:18:44;;;;;;;58.35;33.80;;;;;;;-145.63;100.00;61273.97;5034452;28;20109;-68
2024/01/26 06:21:11;;;;;;;54.95;32.22;;;;;;;-145.63;100.00;61273.97;5010141;28;20026;-67
2024/01/26 06:23:37;;;;;;;54.70;31.83;;;;;;;-145.63;100.00;61273.97;5012849;28;20030;-66
2024/01/26 06:26:03;;;;;;;60.10;34.08;;;;;;;-145.63;100.00;61273.97;5021289;28;20417;-68
2024/01/26 06:28:29;;;;;;;55.75;32.95;;;;;;;-145.63;100.00;61273.97;5031207;28;20128;-66
2024/01/26 06:30:55;;;;;;;56.58;33.95;;;;;;;-145.63;100.00;61273.97;5026115;28;20069;-68
2024/01/26 06:33:20;;;;;;;55.47;33.55;;;;;;;-145.63;100.00;61273.97;5027359;28;20029;-67
2024/01/26 06:35:46;;;;;;;52.25;31.67;;;;;;;-145.63;100.00;61273.97;5015146;28;20060;-67
2024/01/26 06:38:13;;;;;;;56.50;33.80;;;;;;;-145.63;100.00;61273.97;5022874;28;20045;-67
2024/01/26 06:40:43;;;;;;;54.95;33.80;;;;;;;-145.63;100.00;61273.97;5024892;28;20080;-69
2024/01/26 06:43:09;;;;;;;54.55;33.28;;;;;;;-145.63;100.00;61273.97;5013758;28;20465;-66
2024/01/26 06:45:37;;;;;;;60.92;36.22;;;;;;;-145.63;100.00;61273.97;5011613;28;20038;-67
2024/01/26 06:48:03;;;;;;;56.42;33.55;;;;;;;-145.63;100.00;61273.97;5030102;28;20049;-66
2024/01/26 06:50:29;;;;;;;62.45;34.53;;;;;;;-145.63;100.00;61273.97;5032999;28;20033;-66
2024/01/26 06:52:55;;;;;;;57.45;33.63;;;;;;;-145.63;100.00;61273.97;5032712;28;20546;-66
2024/01/26 06:55:20;;;;;;;59.08;34.33;;;;;;;-145.63;100.00;61273.97;5017891;28;20079;-67
2024/01/26 06:57:46;;;;;;;55.00;33.75;;;;;;;-145.63;100.00;61273.97;5014678;28;20040;-67
2024/01/26 07:00:12;;;;;;;60.13;34.60;;;;;;;-145.63;100.00;61273.97;5034143;28;20037;-67
2024/01/26 07:02:38;;;;;;;54.17;31.35;;;;;;;-145.63;100.00;61273.97;5019538;28;20041;-68
2024/01/26 07:05:04;;;;;;;51.88;30.75;;;;;;;-145.63;100.00;61273.97;5021206;28;20467;-67
2024/01/26 07:07:31;;;;;;;51.10;30.98;;;;;;;-145.63;100.00;61273.97;5021094;28;20030;-72
2024/01/26 07:09:57;;;;;;;51.72;29.73;;;;;;;-145.63;100.00;61273.97;5019554;28;20069;-69
2024/01/26 07:12:23;;;;;;;53.75;30.95;;;;;;;-145.63;100.00;61273.97;5017404;28;20072;-66
2024/01/26 07:14:48;;;;;;;57.20;32.40;;;;;;;-145.63;100.00;61273.97;5018253;28;20045;-66
2024/01/26 07:17:14;;;;;;;57.05;33.20;;;;;;;-145.63;100.00;61273.97;5038120;28;20025;-69
2024/01/26 07:19:40;;;;;;;54.88;32.20;;;;;;;-145.63;100.00;61273.97;5037388;28;20037;-68
2024/01/26 07:22:05;;;;;;;53.78;31.08;;;;;;;-145.63;100.00;61273.97;5017061;28;20026;-67
2024/01/26 07:24:31;;;;;;;53.17;31.55;;;;;;;-145.63;100.00;61273.97;5026701;28;20033;-67
2024/01/26 07:26:57;;;;;;;60.13;33.83;;;;;;;-145.63;100.00;61273.97;5016568;28;20034;-67
2024/01/26 07:29:22;;;;;;;58.90;32.55;;;;;;;-145.63;100.00;61273.97;5026513;28;20036;-67
2024/01/26 07:31:49;;;;;;;55.58;32.13;;;;;;;-145.63;100.00;61273.97;5025758;28;20026;-69
2024/01/26 07:34:15;;;;;;;56.25;32.90;;;;;;;-145.63;100.00;61273.97;5016942;28;20040;-67
2024/01/26 07:36:41;;;;;;;53.60;30.38;;;;;;;-145.63;100.00;61273.97;5025389;28;20160;-67
2024/01/26 07:39:07;;;;;;;54.90;31.75;;;;;;;-145.63;100.00;61273.97;5033164;28;20094;-68
2024/01/26 07:41:33;;;;;;;54.95;31.15;;;;;;;-145.63;100.00;61273.97;5024205;28;20030;-68
2024/01/26 07:44:00;;;;;;;52.35;31.65;;;;;;;-145.63;100.00;61273.97;5022749;28;20033;-66
2024/01/26 07:46:25;;;;;;;53.53;32.22;;;;;;;-145.63;100.00;61273.97;5019006;28;20104;-68
2024/01/26 07:48:51;;;;;;;53.95;33.20;;;;;;;-145.63;100.00;61273.97;5034151;28;20113;-68
2024/01/26 07:51:17;;;;;;;56.20;33.47;;;;;;;-145.63;100.00;61273.97;5031888;28;20038;-65
2024/01/26 07:53:42;;;;;;;54.92;33.67;;;;;;;-145.63;100.00;61273.97;5033569;28;20085;-67
2024/01/26 07:56:08;;;;;;;58.28;33.78;;;;;;;-145.63;100.00;61273.97;5021148;28;20037;-68
2024/01/26 07:58:34;;;;;;;57.38;35.17;;;;;;;-145.63;100.00;61273.97;5024791;28;20053;-66
2024/01/26 08:01:00;;;;;;;52.55;31.77;;;;;;;-145.63;100.00;61273.97;5024400;28;20052;-68
2024/01/26 08:03:25;;;;;;;57.70;32.88;;;;;;;-145.63;100.00;61273.97;5034483;28;20030;-67
2024/01/26 08:05:51;;;;;;;53.13;31.17;;;;;;;-145.63;100.00;61273.97;5021253;28;20052;-67
2024/01/26 08:08:17;;;;;;;53.92;32.30;;;;;;;-145.63;100.00;61273.97;5027004;28;20029;-65
2024/01/26 08:10:42;;;;;;;53.83;31.35;;;;;;;-145.63;100.00;61273.97;5032765;28;20095;-66
2024/01/26 08:13:09;;;;;;;58.15;34.05;;;;;;;-145.63;100.00;61273.97;5032959;28;20044;-66
2024/01/26 08:15:35;;;;;;;55.42;33.05;;;;;;;-145.63;100.00;61273.97;5033361;28;20347;-66
2024/01/26 08:18:01;;;;;;;51.72;30.65;;;;;;;-145.63;100.00;61273.97;5033241;28;20055;-68
2024/01/26 08:20:27;;;;;;;58.20;34.80;;;;;;;-145.63;100.00;61273.97;5021560;28;20463;-68
2024/01/26 08:22:52;;;;;;;58.75;34.03;;;;;;;-145.63;100.00;61273.97;5023867;28;20427;-66
2024/01/26 08:25:18;;;;;;;56.05;34.17;;;;;;;-145.63;100.00;61273.97;5016463;28;20044;-69
2024/01/26 08:27:45;;;;;;;57.70;33.72;;;;;;;-145.63;100.00;61273.97;5033515;28;20025;-67
2024/01/26 08:30:11;;;;;;;57.17;34.10;;;;;;;-145.63;100.00;61273.97;5032927;28;20025;-68
2024/01/26 08:32:36;;;;;;;59.78;36.20;;;;;;;-145.63;100.00;61273.97;5033262;28;20030;-67
2024/01/26 08:35:02;;;;;;;57.88;34.78;;;;;;;-145.63;100.00;61273.97;5032259;28;20025;-68
2024/01/26 08:37:30;;;;;;;59.58;36.58;;;;;;;-145.63;100.00;61273.97;5033267;28;20531;-66
2024/01/26 08:39:57;;;;;;;61.55;36.83;;;;;;;-145.63;100.00;61273.97;5032780;28;20129;-67
2024/01/26 08:42:23;;;;;;;56.85;35.60;;;;;;;-145.63;100.00;61273.97;5026643;28;20033;-67
2024/01/26 08:44:48;;;;;;;56.38;34.67;;;;;;;-145.63;100.00;61273.97;5032663;28;20490;-67
2024/01/26 08:47:14;;;;;;;58.05;34.25;;;;;;;-145.63;100.00;61273.97;5032403;28;20140;-67
2024/01/26 08:49:40;;;;;;;53.35;32.92;;;;;;;-145.63;100.00;61273.97;5033202;28;20433;-66
2024/01/26 08:52:05;;;;;;;56.72;34.85;;;;;;;-145.63;100.00;61273.97;5032731;28;20499;-67
2024/01/26 08:54:32;;;;;;;64.43;36.75;;;;;;;-145.63;100.00;61273.97;5033406;28;20026;-68
2024/01/26 08:56:57;;;;;;;60.45;35.30;;;;;;;-145.63;100.00;61273.97;5033158;28;20521;-69
2024/01/26 08:59:23;;;;;;;59.40;36.75;;;;;;;-145.63;100.00;61273.97;5033398;28;20025;-66
2024/01/26 09:01:49;;;;;;;61.03;36.42;;;;;;;-145.63;100.00;61273.97;5025649;28;20022;-69
2024/01/26 09:04:14;;;;;;;61.75;37.45;;;;;;;-145.63;100.00;61273.97;5015280;28;20034;-67
2024/01/26 09:06:40;;;;;;;56.97;34.95;;;;;;;-145.63;100.00;61273.97;5032975;28;20033;-69
2024/01/26 09:09:06;;;;;;;59.50;35.47;;;;;;;-145.63;100.00;61273.97;5021950;28;20033;-70
2024/01/26 09:11:32;;;;;;;57.33;36.30;;;;;;;-145.63;100.00;61273.97;5025218;28;20060;-67
2024/01/26 09:13:58;;;;;;;56.65;35.20;;;;;;;-145.63;100.00;61273.97;5031039;28;20037;-66
2024/01/26 09:16:24;;;;;;;58.63;33.50;;;;;;;-145.63;100.00;61273.97;5035402;28;20375;-65
2024/01/26 09:18:50;;;;;;;59.40;35.47;;;;;;;-145.63;100.00;61273.97;5045103;28;20080;-67
2024/01/26 09:21:16;;;;;;;56.38;35.03;;;;;;;-145.63;100.00;61273.97;5030399;28;20433;-66
2024/01/26 09:23:44;;;;;;;58.25;34.13;;;;;;;-145.63;100.00;61273.97;5032253;28;20052;-66
2024/01/26 09:26:11;;;;;;;57.92;34.47;;;;;;;-145.63;100.00;61273.97;5032204;28;20030;-68
2024/01/26 09:28:37;;;;;;;54.35;33.75;;;;;;;-145.63;100.00;61273.97;5031023;28;20022;-68
2024/01/26 09:31:03;;;;;;;53.15;32.65;;;;;;;-145.63;100.00;61273.97;5031851;28;20037;-69
2024/01/26 09:33:29;;;;;;;61.75;34.85;;;;;;;-145.63;100.00;61273.97;5032246;28;20040;-67
2024/01/26 09:35:56;;;;;;;57.22;35.10;;;;;;;-145.63;100.00;61273.97;5031557;28;20407;-68
2024/01/26 09:38:25;;;;;;;55.08;34.72;;;;;;;-145.63;100.00;61273.97;5028649;28;20140;-67
2024/01/26 09:40:51;;;;;;;59.05;36.45;;;;;;;-145.63;100.00;61273.97;5028020;28;20670;-67
2024/01/26 09:43:17;;;;;;;53.95;34.50;;;;;;;-145.63;100.00;61273.97;5027717;28;20033;-68
2024/01/26 09:45:49;;;;;;;55.08;32.78;;;;;;;-145.63;100.00;61273.97;5032293;28;20044;-68
2024/01/26 09:48:18;;;;;;;55.63;33.78;;;;;;;-145.63;100.00;61273.97;5032093;28;20033;-69
2024/01/26 09:50:50;;;;;;;51.03;32.40;;;;;;;-145.63;100.00;61273.97;5032222;28;20074;-66
2024/01/26 09:53:18;;;;;;;51.42;32.28;;;;;;;-145.63;100.00;61273.97;5030520;28;20406;-68
2024/01/26 09:55:47;;;;;;;47.67;31.13;;;;;;;-145.63;100.00;61273.97;5031989;28;20029;-70
2024/01/26 09:58:14;;;;;;;49.53;31.83;;;;;;;-145.63;100.00;61273.97;5029663;28;20254;-67
2024/01/26 10:00:45;;;;;;;50.53;31.17;;;;;;;-145.63;100.00;61273.97;5015149;28;20064;-66
2024/01/26 10:03:12;;;;;;;48.20;30.95;;;;;;;-145.63;100.00;61273.97;5014173;28;20033;-68
2024/01/26 10:05:38;;;;;;;53.17;32.53;;;;;;;-145.63;100.00;61273.97;5025969;28;20244;-69
2024/01/26 10:08:10;;;;;;;46.33;31.00;;;;;;;-145.63;100.00;61273.97;5029439;28;20375;-66
2024/01/26 10:10:37;;;;;;;50.67;31.38;;;;;;;-145.63;100.00;61273.97;5012034;28;20029;-68
2024/01/26 10:13:08;;;;;;;50.17;31.38;;;;;;;-145.63;100.00;61273.97;5012365;28;20145;-66
2024/01/26 10:15:34;;;;;;;51.50;32.20;;;;;;;-145.63;100.00;61273.97;5032628;28;20076;-67
2024/01/26 10:18:00;;;;;;;51.80;31.63;;;;;;;-145.63;100.00;61273.97;5049405;28;20098;-67
2024/01/26 10:20:26;;;;;;;50.85;31.83;;;;;;;-145.63;100.00;61273.97;5039375;28;20489;-67
2024/01/26 10:22:53;;;;;;;49.45;32.20;;;;;;;-145.63;100.00;61273.97;5018987;28;20029;-67
2024/01/26 10:25:18;;;;;;;48.53;31.80;;;;;;;-145.63;100.00;61273.97;5035479;28;20033;-67
2024/01/26 10:27:44;;;;;;;52.42;32.55;;;;;;;-145.63;100.00;61273.97;5035580;28;20487;-68
2024/01/26 10:30:11;;;;;;;50.35;32.92;;;;;;;-145.63;100.00;61273.97;5035137;28;20370;-68
2024/01/26 10:32:38;;;;;;;51.47;31.65;;;;;;;-145.63;100.00;61273.97;5035645;28;20033;-67
2024/01/26 10:35:05;;;;;;;48.80;32.53;;;;;;;-145.63;100.00;61273.97;5034367;28;20032;-67
2024/01/26 10:37:33;;;;;;;51.03;30.48;;;;;;;-145.63;100.00;61273.97;5034732;28;20156;-68
2024/01/26 10:40:01;;;;;;;53.88;32.58;;;;;;;-145.63;100.00;61273.97;5035190;28;20073;-66
2024/01/26 10:42:32;;;;;;;49.50;32.33;;;;;;;-145.63;100.00;61273.97;5033234;28;20147;-68
2024/01/26 10:45:00;;;;;;;49.03;32.20;;;;;;;-145.63;100.00;61273.97;5034529;28;20049;-68
2024/01/26 10:47:27;;;;;;;55.72;34.88;;;;;;;-145.63;100.00;61273.97;5035084;28;20040;-68
2024/01/26 10:49:56;;;;;;;48.58;32.83;;;;;;;-145.63;100.00;61273.97;5035149;28;20045;-69